Herculaneum, Missouri
Current Conditions -  °F | °C
As of 3:53 AM on Saturday 29 Nov 2014 (Local Time) from KCPS Reporting Station
Clear Clear  
Wind Chill: 36°   Ceiling: Unl
Heat Index: 41°   Visibility: 10mi
Dew Point: 35°   Wind: 7mph
Humidity: 79%   Direction: 160°SSE
Pressure: 29.83"   Gusts: NA
Location:  38.27°N, 90.38°W
Report Text: KCPS 290953Z AUTO 16006KT 10SM CLR 05/02 A2983 RMK AO2 SLP101 T00500017 TSNO
Loading
Personal Weather Stations






























Interactive Weather Map New forecast layout! Learn more

10-Day Weather Forecast

Advertisements
Track Severe Weather on mobile